sensor_id;sensor_type;location;lat;lon;timestamp;temperature;humidity
67157;SHT31;54086;50.126;8.710;2022-12-31T00:01:49;12.73;92.65
67157;SHT31;54086;50.126;8.710;2022-12-31T00:04:14;12.71;92.66
67157;SHT31;54086;50.126;8.710;2022-12-31T00:06:39;12.77;92.48
67157;SHT31;54086;50.126;8.710;2022-12-31T00:09:06;12.81;92.49
67157;SHT31;54086;50.126;8.710;2022-12-31T00:11:33;12.74;92.60
67157;SHT31;54086;50.126;8.710;2022-12-31T00:13:58;12.73;92.75
67157;SHT31;54086;50.126;8.710;2022-12-31T00:16:32;12.73;92.80
67157;SHT31;54086;50.126;8.710;2022-12-31T00:18:58;12.76;92.69
67157;SHT31;54086;50.126;8.710;2022-12-31T00:21:25;12.77;92.83
67157;SHT31;54086;50.126;8.710;2022-12-31T00:23:51;12.76;92.71
67157;SHT31;54086;50.126;8.710;2022-12-31T00:26:19;12.83;92.61
67157;SHT31;54086;50.126;8.710;2022-12-31T00:28:45;12.84;92.58
67157;SHT31;54086;50.126;8.710;2022-12-31T00:31:14;12.83;92.60
67157;SHT31;54086;50.126;8.710;2022-12-31T00:33:40;12.95;92.27
67157;SHT31;54086;50.126;8.710;2022-12-31T00:36:10;12.99;92.19
67157;SHT31;54086;50.126;8.710;2022-12-31T00:38:36;12.97;92.18
67157;SHT31;54086;50.126;8.710;2022-12-31T00:41:03;13.02;92.14
67157;SHT31;54086;50.126;8.710;2022-12-31T00:43:28;12.99;92.20
67157;SHT31;54086;50.126;8.710;2022-12-31T00:45:54;13.05;92.02
67157;SHT31;54086;50.126;8.710;2022-12-31T00:48:19;13.06;92.03
67157;SHT31;54086;50.126;8.710;2022-12-31T00:50:45;13.02;92.16
67157;SHT31;54086;50.126;8.710;2022-12-31T00:53:10;13.09;91.92
67157;SHT31;54086;50.126;8.710;2022-12-31T00:55:35;13.08;92.03
67157;SHT31;54086;50.126;8.710;2022-12-31T00:58:01;13.06;92.04
67157;SHT31;54086;50.126;8.710;2022-12-31T01:00:26;13.15;91.79
67157;SHT31;54086;50.126;8.710;2022-12-31T01:02:51;13.18;91.77
67157;SHT31;54086;50.126;8.710;2022-12-31T01:05:17;13.20;91.67
67157;SHT31;54086;50.126;8.710;2022-12-31T01:07:42;13.19;91.73
67157;SHT31;54086;50.126;8.710;2022-12-31T01:10:08;13.22;91.66
67157;SHT31;54086;50.126;8.710;2022-12-31T01:12:33;13.28;91.55
67157;SHT31;54086;50.126;8.710;2022-12-31T01:14:59;13.20;91.68
67157;SHT31;54086;50.126;8.710;2022-12-31T01:17:24;13.28;91.55
67157;SHT31;54086;50.126;8.710;2022-12-31T01:19:49;13.29;91.56
67157;SHT31;54086;50.126;8.710;2022-12-31T01:22:15;13.32;91.49
67157;SHT31;54086;50.126;8.710;2022-12-31T01:24:41;13.30;91.56
67157;SHT31;54086;50.126;8.710;2022-12-31T01:27:07;13.26;91.72
67157;SHT31;54086;50.126;8.710;2022-12-31T01:29:32;13.29;91.71
67157;SHT31;54086;50.126;8.710;2022-12-31T01:31:57;13.30;91.61
67157;SHT31;54086;50.126;8.710;2022-12-31T01:34:23;13.36;91.54
67157;SHT31;54086;50.126;8.710;2022-12-31T01:36:49;13.45;91.40
67157;SHT31;54086;50.126;8.710;2022-12-31T01:39:17;13.43;91.32
67157;SHT31;54086;50.126;8.710;2022-12-31T01:41:45;13.55;91.18
67157;SHT31;54086;50.126;8.710;2022-12-31T01:46:41;13.46;91.40
67157;SHT31;54086;50.126;8.710;2022-12-31T01:51:39;13.60;91.12
67157;SHT31;54086;50.126;8.710;2022-12-31T01:54:08;13.63;90.97
67157;SHT31;54086;50.126;8.710;2022-12-31T01:56:36;13.67;90.98
67157;SHT31;54086;50.126;8.710;2022-12-31T01:59:05;13.74;90.76
67157;SHT31;54086;50.126;8.710;2022-12-31T02:01:35;13.83;90.44
67157;SHT31;54086;50.126;8.710;2022-12-31T02:04:06;13.88;90.43
67157;SHT31;54086;50.126;8.710;2022-12-31T02:06:43;13.87;90.50
67157;SHT31;54086;50.126;8.710;2022-12-31T02:09:10;14.04;90.02
67157;SHT31;54086;50.126;8.710;2022-12-31T02:11:35;14.04;89.91
67157;SHT31;54086;50.126;8.710;2022-12-31T02:14:33;14.04;90.00
67157;SHT31;54086;50.126;8.710;2022-12-31T02:25:39;13.94;90.11
67157;SHT31;54086;50.126;8.710;2022-12-31T02:31:10;13.87;90.27
67157;SHT31;54086;50.126;8.710;2022-12-31T02:36:17;13.98;89.71
67157;SHT31;54086;50.126;8.710;2022-12-31T02:38:46;14.01;89.69
67157;SHT31;54086;50.126;8.710;2022-12-31T02:41:13;14.05;89.58
67157;SHT31;54086;50.126;8.710;2022-12-31T02:43:57;14.05;89.43
67157;SHT31;54086;50.126;8.710;2022-12-31T02:46:44;14.11;89.26
67157;SHT31;54086;50.126;8.710;2022-12-31T02:49:27;14.20;88.87
67157;SHT31;54086;50.126;8.710;2022-12-31T02:52:05;14.14;89.02
67157;SHT31;54086;50.126;8.710;2022-12-31T02:54:53;14.24;88.74
67157;SHT31;54086;50.126;8.710;2022-12-31T02:57:28;14.27;88.61
67157;SHT31;54086;50.126;8.710;2022-12-31T03:00:08;14.21;88.71
67157;SHT31;54086;50.126;8.710;2022-12-31T03:02:54;14.32;88.19
67157;SHT31;54086;50.126;8.710;2022-12-31T03:05:24;14.39;88.07
67157;SHT31;54086;50.126;8.710;2022-12-31T03:07:52;14.42;87.93
67157;SHT31;54086;50.126;8.710;2022-12-31T03:10:18;14.41;88.00
67157;SHT31;54086;50.126;8.710;2022-12-31T03:12:44;14.42;87.86
67157;SHT31;54086;50.126;8.710;2022-12-31T03:20:30;14.44;88.00
67157;SHT31;54086;50.126;8.710;2022-12-31T03:23:30;14.41;88.03
67157;SHT31;54086;50.126;8.710;2022-12-31T03:25:57;14.42;88.00
67157;SHT31;54086;50.126;8.710;2022-12-31T03:28:24;14.31;88.46
67157;SHT31;54086;50.126;8.710;2022-12-31T03:30:55;14.22;88.52
67157;SHT31;54086;50.126;8.710;2022-12-31T03:33:21;14.25;88.52
67157;SHT31;54086;50.126;8.710;2022-12-31T03:35:48;14.34;88.28
67157;SHT31;54086;50.126;8.710;2022-12-31T03:38:15;14.36;88.13
67157;SHT31;54086;50.126;8.710;2022-12-31T03:40:48;14.41;87.85
67157;SHT31;54086;50.126;8.710;2022-12-31T03:43:17;14.41;88.00
67157;SHT31;54086;50.126;8.710;2022-12-31T03:45:43;14.39;87.97
67157;SHT31;54086;50.126;8.710;2022-12-31T03:48:09;14.38;88.16
67157;SHT31;54086;50.126;8.710;2022-12-31T03:50:37;14.34;88.29
67157;SHT31;54086;50.126;8.710;2022-12-31T03:53:03;14.39;88.10
67157;SHT31;54086;50.126;8.710;2022-12-31T03:55:28;14.39;88.22
67157;SHT31;54086;50.126;8.710;2022-12-31T03:57:53;14.42;88.14
67157;SHT31;54086;50.126;8.710;2022-12-31T04:00:20;14.49;88.16
67157;SHT31;54086;50.126;8.710;2022-12-31T04:02:46;14.42;88.46
67157;SHT31;54086;50.126;8.710;2022-12-31T04:05:13;14.58;88.17
67157;SHT31;54086;50.126;8.710;2022-12-31T04:07:39;14.58;88.18
67157;SHT31;54086;50.126;8.710;2022-12-31T04:10:07;14.51;88.43
67157;SHT31;54086;50.126;8.710;2022-12-31T04:12:32;14.46;88.65
67157;SHT31;54086;50.126;8.710;2022-12-31T04:14:58;14.46;88.64
67157;SHT31;54086;50.126;8.710;2022-12-31T04:17:24;14.39;88.95
67157;SHT31;54086;50.126;8.710;2022-12-31T04:19:50;14.35;89.09
67157;SHT31;54086;50.126;8.710;2022-12-31T04:22:15;14.42;89.02
67157;SHT31;54086;50.126;8.710;2022-12-31T04:24:42;14.42;89.05
67157;SHT31;54086;50.126;8.710;2022-12-31T04:27:08;14.44;88.94
67157;SHT31;54086;50.126;8.710;2022-12-31T04:29:34;14.46;88.97
67157;SHT31;54086;50.126;8.710;2022-12-31T04:32:00;14.45;89.02
67157;SHT31;54086;50.126;8.710;2022-12-31T04:34:25;14.46;89.13
67157;SHT31;54086;50.126;8.710;2022-12-31T04:36:51;14.51;88.82
67157;SHT31;54086;50.126;8.710;2022-12-31T04:39:16;14.56;88.63
67157;SHT31;54086;50.126;8.710;2022-12-31T04:41:41;14.71;87.95
67157;SHT31;54086;50.126;8.710;2022-12-31T04:44:07;14.65;88.17
67157;SHT31;54086;50.126;8.710;2022-12-31T04:46:32;14.64;88.24
67157;SHT31;54086;50.126;8.710;2022-12-31T04:48:59;14.59;88.19
67157;SHT31;54086;50.126;8.710;2022-12-31T04:51:26;14.58;88.39
67157;SHT31;54086;50.126;8.710;2022-12-31T04:53:52;14.69;87.95
67157;SHT31;54086;50.126;8.710;2022-12-31T04:56:18;14.65;88.00
67157;SHT31;54086;50.126;8.710;2022-12-31T04:58:43;14.72;87.78
67157;SHT31;54086;50.126;8.710;2022-12-31T05:01:09;14.73;87.88
67157;SHT31;54086;50.126;8.710;2022-12-31T05:03:35;14.66;88.06
67157;SHT31;54086;50.126;8.710;2022-12-31T05:06:04;14.77;87.55
67157;SHT31;54086;50.126;8.710;2022-12-31T05:08:30;14.77;87.55
67157;SHT31;54086;50.126;8.710;2022-12-31T05:10:57;14.82;87.48
67157;SHT31;54086;50.126;8.710;2022-12-31T05:13:23;14.82;87.36
67157;SHT31;54086;50.126;8.710;2022-12-31T05:15:48;14.83;87.43
67157;SHT31;54086;50.126;8.710;2022-12-31T05:18:14;14.90;87.05
67157;SHT31;54086;50.126;8.710;2022-12-31T05:20:40;14.95;87.03
67157;SHT31;54086;50.126;8.710;2022-12-31T05:23:05;14.96;86.89
67157;SHT31;54086;50.126;8.710;2022-12-31T05:25:30;15.00;86.85
67157;SHT31;54086;50.126;8.710;2022-12-31T05:27:56;15.06;86.78
67157;SHT31;54086;50.126;8.710;2022-12-31T05:30:22;15.00;87.01
67157;SHT31;54086;50.126;8.710;2022-12-31T05:32:47;15.04;86.86
67157;SHT31;54086;50.126;8.710;2022-12-31T05:35:13;15.16;86.57
67157;SHT31;54086;50.126;8.710;2022-12-31T05:37:38;15.11;86.72
67157;SHT31;54086;50.126;8.710;2022-12-31T05:40:04;15.17;86.60
67157;SHT31;54086;50.126;8.710;2022-12-31T05:42:30;15.17;86.70
67157;SHT31;54086;50.126;8.710;2022-12-31T05:44:55;15.24;86.62
67157;SHT31;54086;50.126;8.710;2022-12-31T05:47:21;15.19;86.68
67157;SHT31;54086;50.126;8.710;2022-12-31T05:49:46;15.19;86.75
67157;SHT31;54086;50.126;8.710;2022-12-31T05:52:12;15.17;86.78
67157;SHT31;54086;50.126;8.710;2022-12-31T05:54:37;15.22;86.71
67157;SHT31;54086;50.126;8.710;2022-12-31T05:57:04;15.16;86.84
67157;SHT31;54086;50.126;8.710;2022-12-31T05:59:30;15.23;86.72
67157;SHT31;54086;50.126;8.710;2022-12-31T06:01:56;15.28;86.69
67157;SHT31;54086;50.126;8.710;2022-12-31T06:04:21;15.33;86.48
67157;SHT31;54086;50.126;8.710;2022-12-31T06:06:47;15.31;86.48
67157;SHT31;54086;50.126;8.710;2022-12-31T06:09:13;15.30;86.47
67157;SHT31;54086;50.126;8.710;2022-12-31T06:11:39;15.30;86.52
67157;SHT31;54086;50.126;8.710;2022-12-31T06:14:04;15.33;86.51
67157;SHT31;54086;50.126;8.710;2022-12-31T06:16:30;15.27;86.60
67157;SHT31;54086;50.126;8.710;2022-12-31T06:18:55;15.23;86.75
67157;SHT31;54086;50.126;8.710;2022-12-31T06:21:20;15.30;86.48
67157;SHT31;54086;50.126;8.710;2022-12-31T06:23:47;15.23;86.82
67157;SHT31;54086;50.126;8.710;2022-12-31T06:26:13;15.20;86.73
67157;SHT31;54086;50.126;8.710;2022-12-31T06:28:39;15.30;86.44
67157;SHT31;54086;50.126;8.710;2022-12-31T06:31:07;15.43;86.02
67157;SHT31;54086;50.126;8.710;2022-12-31T06:33:33;15.31;86.37
67157;SHT31;54086;50.126;8.710;2022-12-31T06:36:01;15.43;85.95
67157;SHT31;54086;50.126;8.710;2022-12-31T06:38:28;15.41;85.89
67157;SHT31;54086;50.126;8.710;2022-12-31T06:40:55;15.43;85.83
67157;SHT31;54086;50.126;8.710;2022-12-31T06:43:20;15.50;85.59
67157;SHT31;54086;50.126;8.710;2022-12-31T06:45:46;15.47;85.85
67157;SHT31;54086;50.126;8.710;2022-12-31T06:48:12;15.55;85.51
67157;SHT31;54086;50.126;8.710;2022-12-31T06:50:37;15.47;85.68
67157;SHT31;54086;50.126;8.710;2022-12-31T06:53:03;15.50;85.60
67157;SHT31;54086;50.126;8.710;2022-12-31T06:55:29;15.48;85.71
67157;SHT31;54086;50.126;8.710;2022-12-31T06:57:55;15.51;85.59
67157;SHT31;54086;50.126;8.710;2022-12-31T07:00:20;15.53;85.68
67157;SHT31;54086;50.126;8.710;2022-12-31T07:03:11;15.53;85.56
67157;SHT31;54086;50.126;8.710;2022-12-31T07:05:49;15.54;85.48
67157;SHT31;54086;50.126;8.710;2022-12-31T07:11:24;15.54;85.55
67157;SHT31;54086;50.126;8.710;2022-12-31T07:14:05;15.53;85.51
67157;SHT31;54086;50.126;8.710;2022-12-31T07:21:59;15.68;85.03
67157;SHT31;54086;50.126;8.710;2022-12-31T07:24:25;15.68;85.02
67157;SHT31;54086;50.126;8.710;2022-12-31T07:30:00;15.68;85.08
67157;SHT31;54086;50.126;8.710;2022-12-31T07:37:54;15.66;84.92
67157;SHT31;54086;50.126;8.710;2022-12-31T07:45:47;15.82;84.46
67157;SHT31;54086;50.126;8.710;2022-12-31T07:48:23;15.82;84.41
67157;SHT31;54086;50.126;8.710;2022-12-31T07:50:50;15.84;84.26
67157;SHT31;54086;50.126;8.710;2022-12-31T07:53:16;15.84;84.32
67157;SHT31;54086;50.126;8.710;2022-12-31T07:55:41;15.77;84.48
67157;SHT31;54086;50.126;8.710;2022-12-31T07:58:23;15.82;84.21
67157;SHT31;54086;50.126;8.710;2022-12-31T08:00:51;15.75;84.37
67157;SHT31;54086;50.126;8.710;2022-12-31T08:08:51;15.72;84.29
67157;SHT31;54086;50.126;8.710;2022-12-31T08:11:56;15.71;84.19
67157;SHT31;54086;50.126;8.710;2022-12-31T08:14:22;15.77;84.11
67157;SHT31;54086;50.126;8.710;2022-12-31T08:16:48;15.66;84.21
67157;SHT31;54086;50.126;8.710;2022-12-31T08:19:24;15.68;84.17
67157;SHT31;54086;50.126;8.710;2022-12-31T08:25:04;15.71;83.61
67157;SHT31;54086;50.126;8.710;2022-12-31T08:30:11;15.68;83.74
67157;SHT31;54086;50.126;8.710;2022-12-31T08:32:57;15.65;83.61
67157;SHT31;54086;50.126;8.710;2022-12-31T08:41:16;15.59;83.58
67157;SHT31;54086;50.126;8.710;2022-12-31T08:43:53;15.59;83.67
67157;SHT31;54086;50.126;8.710;2022-12-31T08:46:31;15.58;83.66
67157;SHT31;54086;50.126;8.710;2022-12-31T08:48:58;15.57;83.62
67157;SHT31;54086;50.126;8.710;2022-12-31T08:51:24;15.54;83.81
67157;SHT31;54086;50.126;8.710;2022-12-31T08:53:50;15.55;83.69
67157;SHT31;54086;50.126;8.710;2022-12-31T08:56:27;15.61;83.36
67157;SHT31;54086;50.126;8.710;2022-12-31T08:59:00;15.58;83.48
67157;SHT31;54086;50.126;8.710;2022-12-31T09:01:35;15.54;83.69
67157;SHT31;54086;50.126;8.710;2022-12-31T09:06:42;15.55;83.57
67157;SHT31;54086;50.126;8.710;2022-12-31T09:12:49;15.58;83.39
67157;SHT31;54086;50.126;8.710;2022-12-31T09:15:24;15.54;83.55
67157;SHT31;54086;50.126;8.710;2022-12-31T09:17:51;15.59;83.34
67157;SHT31;54086;50.126;8.710;2022-12-31T09:20:25;15.59;83.36
67157;SHT31;54086;50.126;8.710;2022-12-31T09:22:54;15.61;83.15
67157;SHT31;54086;50.126;8.710;2022-12-31T09:25:21;15.59;83.20
67157;SHT31;54086;50.126;8.710;2022-12-31T09:28:04;15.62;83.16
67157;SHT31;54086;50.126;8.710;2022-12-31T09:30:52;15.69;82.91
67157;SHT31;54086;50.126;8.710;2022-12-31T09:35:55;15.69;82.84
67157;SHT31;54086;50.126;8.710;2022-12-31T09:38:31;15.71;82.54
67157;SHT31;54086;50.126;8.710;2022-12-31T09:41:35;15.72;82.68
67157;SHT31;54086;50.126;8.710;2022-12-31T09:47:15;15.75;82.55
67157;SHT31;54086;50.126;8.710;2022-12-31T09:53:09;15.77;82.27
67157;SHT31;54086;50.126;8.710;2022-12-31T09:58:40;15.84;82.10
67157;SHT31;54086;50.126;8.710;2022-12-31T10:04:04;15.91;81.80
67157;SHT31;54086;50.126;8.710;2022-12-31T10:06:33;15.88;81.73
67157;SHT31;54086;50.126;8.710;2022-12-31T10:12:26;15.98;81.53
67157;SHT31;54086;50.126;8.710;2022-12-31T10:15:37;16.05;81.26
67157;SHT31;54086;50.126;8.710;2022-12-31T10:23:50;16.12;80.69
67157;SHT31;54086;50.126;8.710;2022-12-31T10:26:29;16.22;80.43
67157;SHT31;54086;50.126;8.710;2022-12-31T10:37:18;16.30;80.01
67157;SHT31;54086;50.126;8.710;2022-12-31T10:42:35;16.36;79.75
67157;SHT31;54086;50.126;8.710;2022-12-31T10:59:19;16.57;79.42
67157;SHT31;54086;50.126;8.710;2022-12-31T11:16:32;16.60;79.12
67157;SHT31;54086;50.126;8.710;2022-12-31T11:19:23;16.54;79.18
67157;SHT31;54086;50.126;8.710;2022-12-31T11:25:02;16.59;79.04
67157;SHT31;54086;50.126;8.710;2022-12-31T11:27:44;16.61;78.98
67157;SHT31;54086;50.126;8.710;2022-12-31T11:30:35;16.63;78.86
67157;SHT31;54086;50.126;8.710;2022-12-31T11:36:18;16.67;78.73
67157;SHT31;54086;50.126;8.710;2022-12-31T11:38:55;16.74;78.58
67157;SHT31;54086;50.126;8.710;2022-12-31T11:41:38;16.75;78.73
67157;SHT31;54086;50.126;8.710;2022-12-31T11:48:13;16.83;77.98
67157;SHT31;54086;50.126;8.710;2022-12-31T11:57:51;16.96;77.73
67157;SHT31;54086;50.126;8.710;2022-12-31T12:00:22;17.00;77.91
67157;SHT31;54086;50.126;8.710;2022-12-31T12:03:03;17.00;77.83
67157;SHT31;54086;50.126;8.710;2022-12-31T12:05:29;17.04;77.70
67157;SHT31;54086;50.126;8.710;2022-12-31T12:07:55;17.02;77.71
67157;SHT31;54086;50.126;8.710;2022-12-31T12:12:49;17.10;77.42
67157;SHT31;54086;50.126;8.710;2022-12-31T12:15:20;17.10;77.30
67157;SHT31;54086;50.126;8.710;2022-12-31T12:17:55;17.14;77.40
67157;SHT31;54086;50.126;8.710;2022-12-31T12:20:34;17.23;77.16
67157;SHT31;54086;50.126;8.710;2022-12-31T12:23:13;17.21;76.98
67157;SHT31;54086;50.126;8.710;2022-12-31T12:25:41;17.25;76.85
67157;SHT31;54086;50.126;8.710;2022-12-31T12:30:41;17.23;76.53
67157;SHT31;54086;50.126;8.710;2022-12-31T12:33:15;17.21;76.55
67157;SHT31;54086;50.126;8.710;2022-12-31T12:35:40;17.16;76.91
67157;SHT31;54086;50.126;8.710;2022-12-31T12:38:15;17.18;76.45
67157;SHT31;54086;50.126;8.710;2022-12-31T12:40:58;17.25;76.17
67157;SHT31;54086;50.126;8.710;2022-12-31T12:43:34;17.21;76.01
67157;SHT31;54086;50.126;8.710;2022-12-31T12:46:18;17.16;76.01
67157;SHT31;54086;50.126;8.710;2022-12-31T12:48:46;17.15;75.96
67157;SHT31;54086;50.126;8.710;2022-12-31T12:51:36;17.12;75.98
67157;SHT31;54086;50.126;8.710;2022-12-31T13:05:12;17.16;75.57
67157;SHT31;54086;50.126;8.710;2022-12-31T13:10:26;17.22;75.21
67157;SHT31;54086;50.126;8.710;2022-12-31T13:15:55;17.25;75.01
67157;SHT31;54086;50.126;8.710;2022-12-31T13:19:00;17.23;75.13
67157;SHT31;54086;50.126;8.710;2022-12-31T13:24:33;17.23;74.95
67157;SHT31;54086;50.126;8.710;2022-12-31T13:27:09;17.26;74.49
67157;SHT31;54086;50.126;8.710;2022-12-31T13:29:38;17.31;74.43
67157;SHT31;54086;50.126;8.710;2022-12-31T13:32:07;17.33;74.11
67157;SHT31;54086;50.126;8.710;2022-12-31T13:34:38;17.36;73.83
67157;SHT31;54086;50.126;8.710;2022-12-31T13:37:30;17.33;73.87
67157;SHT31;54086;50.126;8.710;2022-12-31T13:40:05;17.36;73.83
67157;SHT31;54086;50.126;8.710;2022-12-31T13:42:46;17.39;73.44
67157;SHT31;54086;50.126;8.710;2022-12-31T13:45:22;17.36;73.56
67157;SHT31;54086;50.126;8.710;2022-12-31T13:47:53;17.35;73.33
67157;SHT31;54086;50.126;8.710;2022-12-31T13:50:34;17.38;73.32
67157;SHT31;54086;50.126;8.710;2022-12-31T13:55:57;17.42;73.07
67157;SHT31;54086;50.126;8.710;2022-12-31T13:58:37;17.40;73.09
67157;SHT31;54086;50.126;8.710;2022-12-31T14:04:01;17.32;73.15
67157;SHT31;54086;50.126;8.710;2022-12-31T14:08:57;17.42;72.39
67157;SHT31;54086;50.126;8.710;2022-12-31T14:11:53;17.43;72.43
67157;SHT31;54086;50.126;8.710;2022-12-31T14:14:52;17.38;72.52
67157;SHT31;54086;50.126;8.710;2022-12-31T14:17:23;17.33;72.44
67157;SHT31;54086;50.126;8.710;2022-12-31T14:20:28;17.33;72.36
67157;SHT31;54086;50.126;8.710;2022-12-31T14:23:22;17.28;72.47
67157;SHT31;54086;50.126;8.710;2022-12-31T14:28:43;17.28;72.30
67157;SHT31;54086;50.126;8.710;2022-12-31T14:34:12;17.16;72.68
67157;SHT31;54086;50.126;8.710;2022-12-31T14:37:10;17.23;72.32
67157;SHT31;54086;50.126;8.710;2022-12-31T14:39:50;17.35;71.87
67157;SHT31;54086;50.126;8.710;2022-12-31T14:45:14;17.26;72.07
67157;SHT31;54086;50.126;8.710;2022-12-31T14:50:30;17.26;71.84
67157;SHT31;54086;50.126;8.710;2022-12-31T14:55:34;17.22;71.96
67157;SHT31;54086;50.126;8.710;2022-12-31T14:58:15;17.12;72.29
67157;SHT31;54086;50.126;8.710;2022-12-31T15:00:52;17.12;72.01
67157;SHT31;54086;50.126;8.710;2022-12-31T15:06:07;17.19;71.62
67157;SHT31;54086;50.126;8.710;2022-12-31T15:15:02;17.07;71.99
67157;SHT31;54086;50.126;8.710;2022-12-31T15:22:50;16.96;72.06
67157;SHT31;54086;50.126;8.710;2022-12-31T15:25:45;16.91;72.28
67157;SHT31;54086;50.126;8.710;2022-12-31T15:28:28;16.89;72.55
67157;SHT31;54086;50.126;8.710;2022-12-31T15:31:05;16.80;72.78
67157;SHT31;54086;50.126;8.710;2022-12-31T15:33:32;16.75;73.00
67157;SHT31;54086;50.126;8.710;2022-12-31T15:36:17;16.74;73.19
67157;SHT31;54086;50.126;8.710;2022-12-31T15:38:43;16.67;73.32
67157;SHT31;54086;50.126;8.710;2022-12-31T15:41:22;16.60;73.71
67157;SHT31;54086;50.126;8.710;2022-12-31T15:43:53;16.57;73.70
67157;SHT31;54086;50.126;8.710;2022-12-31T15:46:21;16.49;74.03
67157;SHT31;54086;50.126;8.710;2022-12-31T15:48:49;16.47;74.05
67157;SHT31;54086;50.126;8.710;2022-12-31T15:51:21;16.50;73.90
67157;SHT31;54086;50.126;8.710;2022-12-31T15:53:51;16.46;74.07
67157;SHT31;54086;50.126;8.710;2022-12-31T15:56:31;16.37;74.33
67157;SHT31;54086;50.126;8.710;2022-12-31T15:58:58;16.46;73.88
67157;SHT31;54086;50.126;8.710;2022-12-31T16:01:31;16.49;73.83
67157;SHT31;54086;50.126;8.710;2022-12-31T16:06:32;16.40;73.90
67157;SHT31;54086;50.126;8.710;2022-12-31T16:08:59;16.42;73.92
67157;SHT31;54086;50.126;8.710;2022-12-31T16:11:25;16.42;73.71
67157;SHT31;54086;50.126;8.710;2022-12-31T16:13:55;16.40;73.73
67157;SHT31;54086;50.126;8.710;2022-12-31T16:16:26;16.47;73.31
67157;SHT31;54086;50.126;8.710;2022-12-31T16:18:52;16.57;72.78
67157;SHT31;54086;50.126;8.710;2022-12-31T16:21:33;16.53;72.84
67157;SHT31;54086;50.126;8.710;2022-12-31T16:24:04;16.59;72.41
67157;SHT31;54086;50.126;8.710;2022-12-31T16:26:47;16.54;72.54
67157;SHT31;54086;50.126;8.710;2022-12-31T16:29:16;16.47;72.61
67157;SHT31;54086;50.126;8.710;2022-12-31T16:31:43;16.52;72.47
67157;SHT31;54086;50.126;8.710;2022-12-31T16:34:12;16.44;72.63
67157;SHT31;54086;50.126;8.710;2022-12-31T16:36:39;16.44;72.70
67157;SHT31;54086;50.126;8.710;2022-12-31T16:39:26;16.39;73.00
67157;SHT31;54086;50.126;8.710;2022-12-31T16:42:05;16.30;73.29
67157;SHT31;54086;50.126;8.710;2022-12-31T16:44:31;16.24;73.26
67157;SHT31;54086;50.126;8.710;2022-12-31T16:46:59;16.27;73.30
67157;SHT31;54086;50.126;8.710;2022-12-31T16:49:26;16.30;73.14
67157;SHT31;54086;50.126;8.710;2022-12-31T16:51:56;16.30;73.08
67157;SHT31;54086;50.126;8.710;2022-12-31T16:54:49;16.16;73.44
67157;SHT31;54086;50.126;8.710;2022-12-31T16:57:19;16.15;73.57
67157;SHT31;54086;50.126;8.710;2022-12-31T16:59:46;16.08;73.76
67157;SHT31;54086;50.126;8.710;2022-12-31T17:02:24;16.02;74.00
67157;SHT31;54086;50.126;8.710;2022-12-31T17:04:52;15.98;73.95
67157;SHT31;54086;50.126;8.710;2022-12-31T17:12:35;16.12;73.58
67157;SHT31;54086;50.126;8.710;2022-12-31T17:15:05;16.10;73.54
67157;SHT31;54086;50.126;8.710;2022-12-31T17:17:32;16.06;73.59
67157;SHT31;54086;50.126;8.710;2022-12-31T17:20:02;15.99;73.81
67157;SHT31;54086;50.126;8.710;2022-12-31T17:22:34;16.03;73.73
67157;SHT31;54086;50.126;8.710;2022-12-31T17:25:22;15.99;73.71
67157;SHT31;54086;50.126;8.710;2022-12-31T17:27:56;15.99;73.62
67157;SHT31;54086;50.126;8.710;2022-12-31T17:35:47;15.95;73.60
67157;SHT31;54086;50.126;8.710;2022-12-31T17:40:51;15.89;73.65
67157;SHT31;54086;50.126;8.710;2022-12-31T17:43:18;15.93;73.45
67157;SHT31;54086;50.126;8.710;2022-12-31T17:45:45;15.89;73.47
67157;SHT31;54086;50.126;8.710;2022-12-31T17:48:13;15.93;73.35
67157;SHT31;54086;50.126;8.710;2022-12-31T17:50:46;15.91;73.22
67157;SHT31;54086;50.126;8.710;2022-12-31T17:53:12;15.88;73.30
67157;SHT31;54086;50.126;8.710;2022-12-31T17:55:38;15.86;73.39
67157;SHT31;54086;50.126;8.710;2022-12-31T17:58:06;15.84;73.49
67157;SHT31;54086;50.126;8.710;2022-12-31T18:00:32;15.77;73.34
67157;SHT31;54086;50.126;8.710;2022-12-31T18:03:00;15.74;73.43
67157;SHT31;54086;50.126;8.710;2022-12-31T18:05:26;15.71;73.47
67157;SHT31;54086;50.126;8.710;2022-12-31T18:07:52;15.71;73.24
67157;SHT31;54086;50.126;8.710;2022-12-31T18:10:20;15.62;73.58
67157;SHT31;54086;50.126;8.710;2022-12-31T18:12:47;15.57;73.72
67157;SHT31;54086;50.126;8.710;2022-12-31T18:15:15;15.53;73.85
67157;SHT31;54086;50.126;8.710;2022-12-31T18:17:41;15.54;73.52
67157;SHT31;54086;50.126;8.710;2022-12-31T18:20:07;15.58;73.20
67157;SHT31;54086;50.126;8.710;2022-12-31T18:22:33;15.61;72.94
67157;SHT31;54086;50.126;8.710;2022-12-31T18:24:58;15.59;72.98
67157;SHT31;54086;50.126;8.710;2022-12-31T18:27:24;15.58;73.05
67157;SHT31;54086;50.126;8.710;2022-12-31T18:29:49;15.55;72.78
67157;SHT31;54086;50.126;8.710;2022-12-31T18:32:23;15.57;72.57
67157;SHT31;54086;50.126;8.710;2022-12-31T18:34:49;15.66;72.17
67157;SHT31;54086;50.126;8.710;2022-12-31T18:37:15;15.58;72.32
67157;SHT31;54086;50.126;8.710;2022-12-31T18:39:43;15.64;71.93
67157;SHT31;54086;50.126;8.710;2022-12-31T18:42:19;15.64;71.67
67157;SHT31;54086;50.126;8.710;2022-12-31T18:44:47;15.68;71.23
67157;SHT31;54086;50.126;8.710;2022-12-31T18:47:14;15.55;71.72
67157;SHT31;54086;50.126;8.710;2022-12-31T18:49:40;15.54;71.54
67157;SHT31;54086;50.126;8.710;2022-12-31T18:52:11;15.55;71.31
67157;SHT31;54086;50.126;8.710;2022-12-31T18:54:37;15.58;71.11
67157;SHT31;54086;50.126;8.710;2022-12-31T18:57:02;15.51;71.43
67157;SHT31;54086;50.126;8.710;2022-12-31T18:59:28;15.53;71.10
67157;SHT31;54086;50.126;8.710;2022-12-31T19:01:53;15.53;70.86
67157;SHT31;54086;50.126;8.710;2022-12-31T19:04:19;15.50;70.94
67157;SHT31;54086;50.126;8.710;2022-12-31T19:06:46;15.48;70.87
67157;SHT31;54086;50.126;8.710;2022-12-31T19:09:11;15.41;71.16
67157;SHT31;54086;50.126;8.710;2022-12-31T19:11:38;15.41;71.02
67157;SHT31;54086;50.126;8.710;2022-12-31T19:14:15;15.41;70.86
67157;SHT31;54086;50.126;8.710;2022-12-31T19:16:42;15.43;70.72
67157;SHT31;54086;50.126;8.710;2022-12-31T19:19:08;15.35;70.86
67157;SHT31;54086;50.126;8.710;2022-12-31T19:21:33;15.37;70.80
67157;SHT31;54086;50.126;8.710;2022-12-31T19:23:58;15.41;70.37
67157;SHT31;54086;50.126;8.710;2022-12-31T19:26:24;15.41;70.46
67157;SHT31;54086;50.126;8.710;2022-12-31T19:28:49;15.40;70.26
67157;SHT31;54086;50.126;8.710;2022-12-31T19:31:15;15.43;70.12
67157;SHT31;54086;50.126;8.710;2022-12-31T19:33:41;15.37;70.32
67157;SHT31;54086;50.126;8.710;2022-12-31T19:36:17;15.30;70.58
67157;SHT31;54086;50.126;8.710;2022-12-31T19:38:43;15.27;70.61
67157;SHT31;54086;50.126;8.710;2022-12-31T19:41:18;15.34;70.46